createdAt,value
2022-10-07T00:01:07.073Z,43.80
2022-10-07T00:03:36.076Z,50.80
2022-10-07T00:06:16.436Z,44.20
2022-10-07T00:08:47.067Z,51.20
2022-10-07T00:11:26.896Z,54.60
2022-10-07T00:14:01.147Z,44.00
2022-10-07T00:16:32.426Z,47.30
2022-10-07T00:19:03.313Z,52.30
2022-10-07T00:21:33.459Z,47.40
2022-10-07T00:24:01.526Z,50.00
2022-10-07T00:26:32.030Z,43.80
2022-10-07T00:28:59.488Z,48.10
2022-10-07T00:31:30.221Z,38.50
2022-10-07T00:33:58.662Z,40.40
2022-10-07T00:36:32.709Z,39.70
2022-10-07T00:39:07.536Z,43.80
2022-10-07T00:41:52.093Z,40.30
2022-10-07T00:44:34.198Z,35.90
2022-10-07T00:47:38.006Z,35.70
2022-10-07T00:50:27.258Z,34.50
2022-10-07T00:52:59.183Z,33.50
2022-10-07T00:55:28.584Z,31.60
2022-10-07T00:58:02.238Z,28.90
2022-10-07T01:00:30.425Z,31.10
2022-10-07T01:02:57.356Z,22.50
2022-10-07T01:05:25.529Z,25.00
2022-10-07T01:07:55.902Z,25.10
2022-10-07T01:10:39.591Z,26.70
2022-10-07T01:13:18.929Z,28.40
2022-10-07T01:16:12.903Z,27.80
2022-10-07T01:18:49.781Z,26.80
2022-10-07T01:21:35.669Z,27.70
2022-10-07T01:24:35.658Z,22.00
2022-10-07T01:27:13.012Z,19.70
2022-10-07T01:29:44.328Z,21.90
2022-10-07T01:32:39.431Z,26.40
2022-10-07T01:35:18.607Z,30.00
2022-10-07T01:37:50.377Z,27.70
2022-10-07T01:40:24.539Z,21.50
2022-10-07T01:42:54.866Z,23.40
2022-10-07T01:45:25.456Z,20.60
2022-10-07T01:47:53.356Z,22.60
2022-10-07T01:50:26.957Z,23.10
2022-10-07T01:53:16.022Z,18.60
2022-10-07T01:56:24.538Z,19.50
2022-10-07T01:59:21.384Z,21.30
2022-10-07T02:02:02.562Z,18.60
2022-10-07T02:04:38.006Z,18.20
2022-10-07T02:07:40.179Z,17.20
2022-10-07T02:10:29.240Z,18.90
2022-10-07T02:13:12.571Z,18.70
2022-10-07T02:16:19.003Z,15.40
2022-10-07T02:18:51.839Z,17.80
2022-10-07T02:21:25.834Z,15.70
2022-10-07T02:23:54.819Z,18.40
2022-10-07T02:26:23.307Z,20.20
2022-10-07T02:28:53.128Z,14.30
2022-10-07T02:31:30.545Z,20.30
2022-10-07T02:34:01.037Z,20.40
2022-10-07T02:36:35.007Z,20.70
2022-10-07T02:39:03.937Z,17.60
2022-10-07T02:42:03.035Z,21.40
2022-10-07T02:45:11.455Z,19.00
2022-10-07T02:47:52.222Z,21.20
2022-10-07T02:50:25.719Z,17.20
2022-10-07T02:52:56.259Z,19.10
2022-10-07T02:55:27.293Z,13.70
2022-10-07T02:57:59.456Z,22.20
2022-10-07T03:00:29.882Z,17.00
2022-10-07T03:03:02.694Z,20.30
2022-10-07T03:05:45.276Z,24.10
2022-10-07T03:08:12.630Z,16.10
2022-10-07T03:10:41.213Z,18.90
2022-10-07T03:13:09.046Z,21.90
2022-10-07T03:15:42.311Z,19.90
2022-10-07T03:18:26.808Z,24.70
2022-10-07T03:21:01.250Z,27.30
2022-10-07T03:23:29.516Z,23.40
2022-10-07T03:25:59.369Z,24.80
2022-10-07T03:28:34.035Z,20.40
2022-10-07T03:31:10.711Z,19.60
2022-10-07T03:33:42.291Z,22.20
2022-10-07T03:36:09.541Z,20.10
2022-10-07T03:38:37.818Z,18.60
2022-10-07T03:41:06.505Z,23.90
2022-10-07T03:43:34.629Z,23.40
2022-10-07T03:46:02.668Z,27.80
2022-10-07T03:48:31.606Z,23.30
2022-10-07T03:50:59.381Z,23.20
2022-10-07T03:53:29.931Z,23.70
2022-10-07T03:55:58.515Z,23.30
2022-10-07T03:58:25.972Z,26.50
2022-10-07T04:00:53.324Z,23.20
2022-10-07T04:03:21.020Z,30.30
2022-10-07T04:06:01.535Z,31.60
2022-10-07T04:08:32.609Z,28.70
2022-10-07T04:11:02.205Z,26.60
2022-10-07T04:13:29.757Z,27.10
2022-10-07T04:15:57.862Z,26.20
2022-10-07T04:18:25.493Z,20.70
2022-10-07T04:20:53.051Z,17.80
2022-10-07T04:23:21.942Z,19.40
2022-10-07T04:25:48.990Z,22.60
2022-10-07T04:28:22.410Z,25.90
2022-10-07T04:30:54.057Z,25.80
2022-10-07T04:33:30.505Z,31.30
2022-10-07T04:36:04.240Z,26.70
2022-10-07T04:38:32.701Z,25.80
2022-10-07T04:41:07.466Z,24.00
2022-10-07T04:43:36.167Z,26.00
2022-10-07T04:46:10.011Z,21.30
2022-10-07T04:48:43.786Z,16.10
2022-10-07T04:51:11.379Z,19.70
2022-10-07T04:53:40.164Z,17.40
2022-10-07T04:56:09.052Z,21.20
2022-10-07T04:58:36.635Z,19.20
2022-10-07T05:01:09.631Z,23.00
2022-10-07T05:03:40.084Z,20.60
2022-10-07T05:06:08.700Z,23.00
2022-10-07T05:08:36.477Z,23.00
2022-10-07T05:11:04.172Z,16.90
2022-10-07T05:13:38.962Z,29.40
2022-10-07T05:16:09.729Z,31.90
2022-10-07T05:18:39.717Z,19.70
2022-10-07T05:21:09.787Z,23.70
2022-10-07T05:23:39.647Z,23.30
2022-10-07T05:26:10.955Z,22.00
2022-10-07T05:28:40.411Z,20.60
2022-10-07T05:31:14.364Z,22.10
2022-10-07T05:33:44.218Z,21.90
2022-10-07T05:36:12.338Z,21.30
2022-10-07T05:38:39.955Z,22.50
2022-10-07T05:41:10.686Z,20.90
2022-10-07T05:43:43.373Z,22.00
2022-10-07T05:46:16.318Z,17.70
2022-10-07T05:48:49.198Z,23.80
2022-10-07T05:51:16.385Z,19.60
2022-10-07T05:53:46.906Z,21.70
2022-10-07T05:56:23.179Z,23.30
2022-10-07T05:58:52.991Z,20.60
2022-10-07T06:01:23.516Z,22.90
2022-10-07T06:03:54.661Z,20.70
2022-10-07T06:06:23.447Z,19.80
2022-10-07T06:08:53.978Z,17.10
2022-10-07T06:11:40.173Z,18.80
2022-10-07T06:14:07.733Z,18.10
2022-10-07T06:16:34.794Z,21.10
2022-10-07T06:19:02.032Z,17.20
2022-10-07T06:21:30.102Z,18.70
2022-10-07T06:24:01.221Z,14.60
2022-10-07T06:26:31.465Z,15.50
2022-10-07T06:28:59.132Z,15.50
2022-10-07T06:31:26.278Z,14.40
2022-10-07T06:33:59.918Z,17.20
2022-10-07T06:36:28.058Z,14.60
2022-10-07T06:38:56.328Z,13.60
2022-10-07T06:41:27.275Z,18.70
2022-10-07T06:44:18.583Z,13.10
2022-10-07T06:46:45.635Z,13.70
2022-10-07T06:49:12.575Z,14.90
2022-10-07T06:51:39.624Z,15.40
2022-10-07T06:54:06.777Z,13.20
2022-10-07T06:56:34.340Z,17.00
2022-10-07T06:59:02.198Z,15.80
2022-10-07T07:01:38.293Z,14.40
2022-10-07T07:04:05.614Z,16.30
2022-10-07T07:06:37.416Z,12.30
2022-10-07T07:09:05.568Z,13.90
2022-10-07T07:11:37.198Z,17.60
2022-10-07T07:14:14.588Z,17.60
2022-10-07T07:16:45.294Z,17.10
2022-10-07T07:19:13.970Z,15.00
2022-10-07T07:21:41.768Z,15.80
2022-10-07T07:24:11.272Z,16.40
2022-10-07T07:26:40.575Z,13.20
2022-10-07T07:29:08.576Z,13.00
2022-10-07T07:31:40.401Z,17.20
2022-10-07T07:34:11.955Z,10.20
2022-10-07T07:36:46.170Z,12.50
2022-10-07T07:39:17.825Z,12.40
2022-10-07T07:41:51.017Z,10.00
2022-10-07T07:44:20.726Z,15.50
2022-10-07T07:46:53.342Z,11.10
2022-10-07T07:49:23.318Z,16.20
2022-10-07T07:51:50.982Z,10.30
2022-10-07T07:54:23.016Z,13.80
2022-10-07T07:56:50.098Z,15.10
2022-10-07T07:59:18.268Z,10.70
2022-10-07T08:01:46.132Z,10.30
2022-10-07T08:04:15.344Z,14.10
2022-10-07T08:06:43.436Z,31.20
2022-10-07T08:09:10.552Z,24.60
2022-10-07T08:11:38.623Z,17.80
2022-10-07T08:14:08.250Z,14.60
2022-10-07T08:16:37.061Z,11.80
2022-10-07T08:19:04.938Z,10.00
2022-10-07T08:21:35.722Z,10.30
2022-10-07T08:24:05.942Z,8.60
2022-10-07T08:26:37.358Z,7.60
2022-10-07T08:29:06.590Z,7.80
2022-10-07T08:31:34.352Z,7.70
2022-10-07T08:34:03.960Z,6.20
2022-10-07T08:36:33.046Z,8.90
2022-10-07T08:39:01.746Z,28.50
2022-10-07T08:41:34.296Z,13.70
2022-10-07T08:44:27.935Z,8.90
2022-10-07T08:47:34.789Z,8.30
2022-10-07T08:50:25.367Z,7.80
2022-10-07T08:53:00.659Z,9.50
2022-10-07T08:55:38.711Z,8.70
2022-10-07T08:58:36.993Z,8.50
2022-10-07T09:01:35.323Z,8.70
2022-10-07T09:04:30.276Z,7.40
2022-10-07T09:07:05.616Z,11.20
2022-10-07T09:09:51.811Z,6.80
2022-10-07T09:12:23.150Z,26.20
2022-10-07T09:14:56.140Z,10.40
2022-10-07T09:17:40.498Z,10.50
2022-10-07T09:20:18.349Z,9.30
2022-10-07T09:22:55.070Z,10.00
2022-10-07T09:25:26.624Z,9.30
2022-10-07T09:27:54.652Z,8.00
2022-10-07T09:30:24.506Z,8.50
2022-10-07T09:32:54.493Z,10.30
2022-10-07T09:35:27.680Z,11.20
2022-10-07T09:38:03.981Z,8.60
2022-10-07T09:41:03.078Z,8.20
2022-10-07T09:43:35.078Z,9.50
2022-10-07T09:46:02.464Z,9.80
2022-10-07T09:48:33.802Z,9.80
2022-10-07T09:51:17.890Z,8.00
2022-10-07T09:54:05.726Z,10.10
2022-10-07T09:56:41.305Z,7.20
2022-10-07T09:59:30.662Z,13.00
2022-10-07T10:01:58.776Z,9.20
2022-10-07T10:04:34.466Z,9.60
2022-10-07T10:07:27.109Z,7.90
2022-10-07T10:09:57.331Z,8.30
2022-10-07T10:12:25.411Z,9.00
2022-10-07T10:14:55.114Z,7.70
2022-10-07T10:17:32.502Z,8.20
2022-10-07T10:20:24.432Z,7.20
2022-10-07T10:22:52.663Z,6.70
2022-10-07T10:25:53.043Z,10.60
2022-10-07T10:28:48.040Z,9.20
2022-10-07T10:32:04.806Z,7.10
2022-10-07T10:34:56.384Z,63.20
2022-10-07T10:37:41.646Z,14.80
2022-10-07T10:40:40.543Z,7.10
2022-10-07T10:43:20.406Z,7.80
2022-10-07T10:46:18.403Z,7.60
2022-10-07T10:49:02.831Z,6.50
2022-10-07T10:52:19.120Z,7.00
2022-10-07T10:55:39.516Z,7.20
2022-10-07T10:58:31.036Z,7.80
2022-10-07T11:01:08.735Z,7.70
2022-10-07T11:04:34.355Z,10.40
2022-10-07T11:07:09.491Z,6.50
2022-10-07T11:09:55.483Z,6.20
2022-10-07T11:12:46.953Z,6.70
2022-10-07T11:15:48.601Z,5.20
2022-10-07T11:18:39.669Z,42.70
2022-10-07T11:21:13.681Z,8.20
2022-10-07T11:24:27.729Z,5.70
2022-10-07T11:27:03.583Z,6.90
2022-10-07T11:30:06.018Z,5.10
2022-10-07T11:33:01.094Z,6.20
2022-10-07T11:35:35.966Z,5.30
2022-10-07T11:38:14.760Z,6.10
2022-10-07T11:41:22.628Z,7.20
2022-10-07T11:44:01.856Z,5.50
2022-10-07T11:46:31.099Z,6.80
2022-10-07T11:49:09.209Z,5.20
2022-10-07T11:52:02.937Z,7.00
2022-10-07T11:54:59.271Z,5.50
2022-10-07T11:57:32.050Z,6.10
2022-10-07T12:00:00.654Z,10.50
2022-10-07T12:02:31.278Z,6.80
2022-10-07T12:05:00.414Z,6.20
2022-10-07T12:07:37.655Z,4.60
2022-10-07T12:10:05.121Z,5.90
2022-10-07T12:12:43.428Z,4.20
2022-10-07T12:15:44.511Z,5.30
2022-10-07T12:18:17.569Z,7.10
2022-10-07T12:20:50.848Z,4.60
2022-10-07T12:23:20.762Z,4.20
2022-10-07T12:25:57.327Z,6.10
2022-10-07T12:28:40.847Z,4.30
2022-10-07T12:31:16.962Z,5.20
2022-10-07T12:33:46.935Z,5.40
2022-10-07T12:36:23.916Z,4.80
2022-10-07T12:38:59.876Z,3.80
2022-10-07T12:41:35.339Z,3.70
2022-10-07T12:44:37.077Z,4.80
2022-10-07T12:47:11.217Z,4.20
2022-10-07T12:50:15.205Z,4.20
2022-10-07T12:53:01.501Z,4.70
2022-10-07T12:55:39.150Z,6.10
2022-10-07T12:58:38.721Z,5.60
2022-10-07T13:01:33.604Z,3.10
2022-10-07T13:04:28.609Z,3.50
2022-10-07T13:07:20.895Z,5.30
2022-10-07T13:10:20.867Z,6.40
2022-10-07T13:12:54.277Z,5.10
2022-10-07T13:15:42.919Z,7.50
2022-10-07T13:18:45.261Z,4.80
2022-10-07T13:21:37.050Z,4.50
2022-10-07T13:24:04.475Z,5.50
2022-10-07T13:26:31.726Z,4.20
2022-10-07T13:29:00.930Z,4.50
2022-10-07T13:31:31.482Z,4.30
2022-10-07T13:34:01.341Z,4.60
2022-10-07T13:36:32.718Z,4.40
2022-10-07T13:39:11.641Z,5.10
2022-10-07T13:41:44.320Z,5.30
2022-10-07T13:44:16.164Z,4.90
2022-10-07T13:46:50.264Z,4.80
2022-10-07T13:49:26.336Z,7.20
2022-10-07T13:51:56.456Z,5.50
2022-10-07T13:54:27.409Z,4.20
2022-10-07T13:56:54.694Z,5.50
2022-10-07T13:59:22.725Z,5.70
2022-10-07T14:01:52.910Z,7.60
2022-10-07T14:04:29.318Z,4.10
2022-10-07T14:07:29.747Z,5.30
2022-10-07T14:10:10.169Z,4.90
2022-10-07T14:12:44.346Z,4.10
2022-10-07T14:15:22.679Z,5.10
2022-10-07T14:17:56.885Z,6.90
2022-10-07T14:20:32.910Z,6.00
2022-10-07T14:23:04.729Z,4.50
2022-10-07T14:25:55.365Z,5.70
2022-10-07T14:28:24.897Z,4.40
2022-10-07T14:31:25.892Z,4.90
2022-10-07T14:34:22.969Z,4.10
2022-10-07T14:37:29.608Z,5.50
2022-10-07T14:39:58.629Z,4.80
2022-10-07T14:42:35.001Z,9.30
2022-10-07T14:45:08.397Z,9.90
2022-10-07T14:47:38.289Z,7.10
2022-10-07T14:50:06.288Z,5.80
2022-10-07T14:52:46.415Z,5.70
2022-10-07T14:55:26.554Z,16.20
2022-10-07T14:57:54.174Z,12.10
2022-10-07T15:00:25.402Z,11.40
2022-10-07T15:02:54.704Z,11.20
2022-10-07T15:05:23.072Z,8.30
2022-10-07T15:07:51.250Z,8.20
2022-10-07T15:10:23.255Z,11.20
2022-10-07T15:12:50.460Z,7.40
2022-10-07T15:15:18.335Z,5.90
2022-10-07T15:17:45.885Z,13.70
2022-10-07T15:20:16.004Z,11.80
2022-10-07T15:22:44.217Z,7.00
2022-10-07T15:25:12.790Z,7.40
2022-10-07T15:27:40.219Z,5.70
2022-10-07T15:30:09.134Z,8.30
2022-10-07T15:32:36.362Z,5.50
2022-10-07T15:35:03.411Z,7.70
2022-10-07T15:37:30.455Z,5.80
2022-10-07T15:39:58.935Z,10.80
2022-10-07T15:42:26.497Z,7.90
2022-10-07T15:44:54.207Z,7.40
2022-10-07T15:47:21.203Z,8.40
2022-10-07T15:49:49.275Z,9.80
2022-10-07T15:52:16.634Z,9.00
2022-10-07T15:54:45.730Z,8.40
2022-10-07T15:57:14.469Z,7.30
2022-10-07T15:59:42.427Z,8.70
2022-10-07T16:02:21.583Z,6.40
2022-10-07T16:04:48.965Z,8.20
2022-10-07T16:07:16.714Z,10.90
2022-10-07T16:09:43.677Z,11.90
2022-10-07T16:12:10.927Z,14.80
2022-10-07T16:14:39.100Z,12.20
2022-10-07T16:17:06.149Z,13.60
2022-10-07T16:19:33.198Z,24.10
2022-10-07T16:22:00.240Z,30.10
2022-10-07T16:24:30.085Z,31.20
2022-10-07T16:27:01.094Z,32.90
2022-10-07T16:29:46.982Z,27.00
2022-10-07T16:32:14.032Z,32.70
2022-10-07T16:34:43.749Z,34.30
2022-10-07T16:37:12.938Z,25.50
2022-10-07T16:39:40.600Z,22.00
2022-10-07T16:42:08.262Z,17.70
2022-10-07T16:44:35.512Z,17.40
2022-10-07T16:47:03.175Z,18.70
2022-10-07T16:49:30.554Z,15.60
2022-10-07T16:51:58.814Z,20.00
2022-10-07T16:54:28.565Z,14.50
2022-10-07T16:56:56.586Z,15.20
2022-10-07T16:59:25.309Z,13.30
2022-10-07T17:01:55.896Z,14.50
2022-10-07T17:04:24.803Z,16.80
2022-10-07T17:06:52.864Z,18.60
2022-10-07T17:09:22.020Z,18.70
2022-10-07T17:11:49.108Z,15.90
2022-10-07T17:14:19.948Z,17.30
2022-10-07T17:16:57.800Z,21.80
2022-10-07T17:19:27.658Z,18.00
2022-10-07T17:21:56.204Z,20.30
2022-10-07T17:24:24.768Z,26.20
2022-10-07T17:26:53.098Z,27.90
2022-10-07T17:29:23.401Z,56.30
2022-10-07T17:31:51.079Z,59.70
2022-10-07T17:34:21.023Z,63.70
2022-10-07T17:36:50.285Z,57.00
2022-10-07T17:39:19.507Z,59.60
2022-10-07T17:41:47.573Z,60.40
2022-10-07T17:44:14.924Z,99.90
2022-10-07T17:46:42.805Z,68.20
2022-10-07T17:49:15.146Z,46.70
2022-10-07T17:51:43.335Z,43.40
2022-10-07T17:54:13.951Z,42.70
2022-10-07T17:56:44.688Z,45.10
2022-10-07T17:59:12.473Z,37.40
2022-10-07T18:01:39.410Z,39.30
2022-10-07T18:04:10.815Z,38.60
2022-10-07T18:06:39.445Z,38.50
2022-10-07T18:09:08.361Z,37.90
2022-10-07T18:11:54.427Z,39.30
2022-10-07T18:14:40.724Z,41.60
2022-10-07T18:17:10.030Z,44.40
2022-10-07T18:19:37.241Z,56.90
2022-10-07T18:22:04.239Z,59.10
2022-10-07T18:24:31.266Z,49.50
2022-10-07T18:27:00.874Z,48.60
2022-10-07T18:29:30.789Z,47.90
2022-10-07T18:31:58.266Z,49.70
2022-10-07T18:34:25.397Z,51.30
2022-10-07T18:36:56.185Z,51.00
2022-10-07T18:39:25.222Z,55.40
2022-10-07T18:41:52.168Z,53.00
2022-10-07T18:44:19.467Z,57.10
2022-10-07T18:46:46.877Z,63.10
2022-10-07T18:49:14.025Z,53.30
2022-10-07T18:51:41.329Z,52.00
2022-10-07T18:54:08.532Z,51.50
2022-10-07T18:56:40.587Z,55.40
2022-10-07T18:59:10.328Z,49.10
2022-10-07T19:01:37.839Z,68.80
2022-10-07T19:04:11.293Z,49.90
2022-10-07T19:06:44.144Z,57.30
2022-10-07T19:09:18.256Z,50.70
2022-10-07T19:11:45.302Z,56.70
2022-10-07T19:14:12.607Z,55.40
2022-10-07T19:16:43.026Z,54.60
2022-10-07T19:19:19.451Z,57.50
2022-10-07T19:21:49.789Z,58.20
2022-10-07T19:24:17.179Z,60.50
2022-10-07T19:26:47.350Z,53.20
2022-10-07T19:29:16.855Z,46.90
2022-10-07T19:31:48.716Z,47.30
2022-10-07T19:34:22.881Z,39.20
2022-10-07T19:36:50.484Z,45.10
2022-10-07T19:39:22.145Z,41.40
2022-10-07T19:41:51.393Z,42.80
2022-10-07T19:44:19.349Z,37.40
2022-10-07T19:46:46.765Z,51.30
2022-10-07T19:49:13.715Z,41.10
2022-10-07T19:51:42.397Z,41.80
2022-10-07T19:54:12.108Z,53.10
2022-10-07T19:56:40.888Z,52.20
2022-10-07T19:59:11.756Z,67.40
2022-10-07T20:01:43.029Z,60.80
2022-10-07T20:04:14.334Z,53.80
2022-10-07T20:06:42.811Z,65.10
2022-10-07T20:09:14.267Z,84.90
2022-10-07T20:11:41.902Z,71.20
2022-10-07T20:14:10.161Z,87.90
2022-10-07T20:16:39.178Z,71.50
2022-10-07T20:19:12.484Z,79.40
2022-10-07T20:21:39.706Z,98.70
2022-10-07T20:24:08.975Z,86.50
2022-10-07T20:26:38.536Z,94.30
2022-10-07T20:29:10.316Z,112.00
2022-10-07T20:31:40.569Z,96.50
2022-10-07T20:34:14.628Z,99.50
2022-10-07T20:36:42.542Z,90.60
2022-10-07T20:39:35.140Z,87.00
2022-10-07T20:42:21.309Z,114.90
2022-10-07T20:44:49.687Z,125.80
2022-10-07T20:47:18.242Z,122.10
2022-10-07T20:49:45.857Z,134.00
2022-10-07T20:52:17.189Z,103.70
2022-10-07T20:54:45.515Z,79.20
2022-10-07T20:57:16.521Z,75.00
2022-10-07T20:59:43.786Z,84.10
2022-10-07T21:02:13.764Z,76.00
2022-10-07T21:04:41.248Z,96.30
2022-10-07T21:07:08.651Z,98.50
2022-10-07T21:09:40.057Z,58.90
2022-10-07T21:12:13.963Z,64.30
2022-10-07T21:14:43.146Z,96.20
2022-10-07T21:17:11.599Z,90.20
2022-10-07T21:19:38.611Z,86.30
2022-10-07T21:22:06.625Z,93.60
2022-10-07T21:24:36.878Z,84.10
2022-10-07T21:27:07.815Z,93.10
2022-10-07T21:29:39.176Z,86.00
2022-10-07T21:32:09.433Z,79.60
2022-10-07T21:34:37.198Z,57.60
2022-10-07T21:37:04.956Z,84.70
2022-10-07T21:39:32.162Z,80.30
2022-10-07T21:41:59.937Z,77.80
2022-10-07T21:44:27.692Z,97.50
2022-10-07T21:46:54.637Z,74.50
2022-10-07T21:49:21.587Z,79.30
2022-10-07T21:51:48.644Z,88.10
2022-10-07T21:54:15.968Z,100.70
2022-10-07T21:56:46.297Z,89.60
2022-10-07T21:59:14.736Z,94.30
2022-10-07T22:01:43.271Z,87.20
2022-10-07T22:04:17.849Z,81.00
2022-10-07T22:07:04.293Z,72.40
2022-10-07T22:09:31.653Z,78.00
2022-10-07T22:11:59.005Z,82.90
2022-10-07T22:14:26.157Z,78.70
2022-10-07T22:16:53.198Z,84.60
2022-10-07T22:19:20.145Z,86.10
2022-10-07T22:21:49.840Z,80.70
2022-10-07T22:24:16.899Z,79.70
2022-10-07T22:26:47.788Z,74.10
2022-10-07T22:29:17.081Z,71.40
2022-10-07T22:31:44.804Z,77.70
2022-10-07T22:34:31.203Z,76.40
2022-10-07T22:36:58.453Z,79.50
2022-10-07T22:39:26.760Z,83.80
2022-10-07T22:41:54.186Z,75.70
2022-10-07T22:44:21.130Z,72.10
2022-10-07T22:46:48.075Z,63.00
2022-10-07T22:49:15.429Z,70.20
2022-10-07T22:51:43.334Z,73.20
2022-10-07T22:54:14.301Z,76.90
2022-10-07T22:56:41.486Z,58.10
2022-10-07T22:59:08.848Z,68.00
2022-10-07T23:01:36.808Z,81.40
2022-10-07T23:04:05.288Z,74.90
2022-10-07T23:06:35.510Z,69.80
2022-10-07T23:09:05.029Z,60.20
2022-10-07T23:11:32.675Z,68.00
2022-10-07T23:14:00.089Z,60.00
2022-10-07T23:16:34.281Z,64.00
2022-10-07T23:19:01.411Z,71.50
2022-10-07T23:21:33.772Z,72.70
2022-10-07T23:24:06.931Z,76.10
2022-10-07T23:26:36.127Z,76.10
2022-10-07T23:29:03.516Z,78.30
2022-10-07T23:31:32.770Z,61.30
2022-10-07T23:34:02.146Z,73.50
2022-10-07T23:36:30.292Z,60.40
2022-10-07T23:39:00.232Z,57.70
2022-10-07T23:41:30.350Z,60.90
2022-10-07T23:44:00.658Z,63.00
2022-10-07T23:46:29.148Z,64.70
2022-10-07T23:48:56.313Z,66.60
2022-10-07T23:51:26.290Z,67.50
2022-10-07T23:53:55.489Z,65.60
2022-10-07T23:56:22.435Z,58.30
2022-10-07T23:58:49.378Z,62.50
